Keremeos, Canada
Current Conditions -  °F | °C
As of 1:00 PM on Sunday 21 Dec 2014 (Local Time) from CYYF Reporting Station
Broken Clouds Broken Clouds  
Wind Chill: 37°   Ceiling: 6500
Heat Index: 45°   Visibility: 15mi
Dew Point: 37°   Wind: 16mph
Humidity: 76%   Direction: 180°S
Pressure: 29.78"   Gusts: NA
Location:  49.2°N, 119.82°W
Report Text: CYYF 212100Z 18014KT 15SM BKN065 BKN160 BKN200 07/03 A2978 RMK SC5AC1CI1 WND ESTD SLP093
Loading
Personal Weather Stations






























Interactive Weather Map New forecast layout! Learn more

10-Day Weather Forecast

Advertisements
Track Severe Weather on mobile